Time;durP1;ratioP1;P1;durP2;ratioP2;P2;SDS_P1;SDS_P2;PMS_P1;PMS_P2;Temp;Humidity;BMP_temperature;BMP_pressure;BME280_temperature;BME280_humidity;BME280_pressure;Samples;Min_cycle;Max_cycle;Signal;HPM_P1;HPM_P2
2022/12/14 00:00:00;;;;;;;;;;;-3.50;99.90;;;;;;5062609;28;20517;-69
2022/12/14 00:02:26;;;;;;;;;;;-3.50;99.90;;;;;;5005227;28;214832;-70
2022/12/14 00:04:52;;;;;;;;;;;-3.50;99.90;;;;;;5051979;28;19924;-70
2022/12/14 00:07:18;;;;;;;;;;;-3.50;99.90;;;;;;4994050;28;206233;-70
2022/12/14 00:09:45;;;;;;;;;;;-3.50;99.90;;;;;;5030780;28;19970;-70
2022/12/14 00:12:11;;;;;;;;;;;-3.50;99.90;;;;;;5011293;28;139262;-70
2022/12/14 00:14:38;;;;;;;;;;;-3.50;99.90;;;;;;5063717;28;20274;-69
2022/12/14 00:17:04;;;;;;;;;;;-3.50;99.90;;;;;;5013455;28;208444;-69
2022/12/14 00:19:31;;;;;;;;;;;-3.50;99.90;;;;;;5036804;28;19925;-69
2022/12/14 00:21:57;;;;;;;;;;;-3.60;99.90;;;;;;5015030;28;204935;-70
2022/12/14 00:24:23;;;;;;;;;;;-3.50;99.90;;;;;;5070997;28;20000;-70
2022/12/14 00:26:49;;;;;;;;;;;-3.50;99.90;;;;;;5036537;28;211477;-69
2022/12/14 00:29:15;;;;;;;;;;;-3.50;99.90;;;;;;4988019;28;19920;-69
2022/12/14 00:31:41;;;;;;;;;;;-3.50;99.90;;;;;;5040317;28;19929;-69
2022/12/14 00:34:07;;;;;;;;;;;-3.50;99.90;;;;;;4996011;28;96696;-69
2022/12/14 00:36:35;;;;;;;;;;;-3.60;99.90;;;;;;5065877;28;19982;-69
2022/12/14 00:39:01;;;;;;;;;;;-3.60;99.90;;;;;;5022024;28;127967;-70
2022/12/14 00:41:27;;;;;;;;;;;-3.60;99.90;;;;;;5045566;28;19928;-70
2022/12/14 00:43:53;;;;;;;;;;;-3.60;99.90;;;;;;5039877;28;207486;-71
2022/12/14 00:46:19;;;;;;;;;;;-3.60;99.90;;;;;;5061745;28;19933;-69
2022/12/14 00:48:45;;;;;;;;;;;-3.70;99.90;;;;;;4971768;28;210440;-70
2022/12/14 00:51:13;;;;;;;;;;;-3.70;99.90;;;;;;5059524;28;20510;-70
2022/12/14 00:53:39;;;;;;;;;;;-3.70;99.90;;;;;;5003681;28;208994;-70
2022/12/14 00:56:06;;;;;;;;;;;-3.70;99.90;;;;;;5062122;28;20381;-71
2022/12/14 00:58:32;;;;;;;;;;;-3.70;99.90;;;;;;5023648;28;171986;-70
2022/12/14 01:01:03;;;;;;;;;;;-3.70;99.90;;;;;;5063370;28;20023;-70
2022/12/14 01:03:29;;;;;;;;;;;-3.80;99.90;;;;;;4975262;28;126437;-70
2022/12/14 01:05:55;;;;;;;;;;;-3.80;99.90;;;;;;5058649;28;19951;-69
2022/12/14 01:08:22;;;;;;;;;;;-3.80;99.90;;;;;;5015889;28;206978;-69
2022/12/14 01:10:47;;;;;;;;;;;-3.80;99.90;;;;;;5045761;28;19924;-68
2022/12/14 01:13:13;;;;;;;;;;;-3.80;99.90;;;;;;4990257;28;196266;-69
2022/12/14 01:15:39;;;;;;;;;;;-3.90;99.90;;;;;;5050780;28;19932;-69
2022/12/14 01:18:05;;;;;;;;;;;-3.90;99.90;;;;;;4993210;28;207389;-69
2022/12/14 01:20:31;;;;;;;;;;;-4.00;99.90;;;;;;5046008;28;19924;-69
2022/12/14 01:22:57;;;;;;;;;;;-4.00;99.90;;;;;;4997018;28;230606;-69
2022/12/14 01:25:23;;;;;;;;;;;-4.00;99.90;;;;;;5065277;28;19929;-69
2022/12/14 01:27:49;;;;;;;;;;;-4.10;99.90;;;;;;5008376;28;207442;-69
2022/12/14 01:30:17;;;;;;;;;;;-4.10;99.90;;;;;;5059516;28;19920;-68
2022/12/14 01:32:43;;;;;;;;;;;-4.20;99.90;;;;;;5011609;28;151106;-69
2022/12/14 01:35:08;;;;;;;;;;;-4.20;99.90;;;;;;5045312;28;19920;-69
2022/12/14 01:37:34;;;;;;;;;;;-4.30;99.90;;;;;;5041184;28;207929;-69
2022/12/14 01:40:01;;;;;;;;;;;-4.30;99.90;;;;;;5057836;28;19931;-69
2022/12/14 01:42:27;;;;;;;;;;;-4.40;99.90;;;;;;5011127;28;200683;-70
2022/12/14 01:44:54;;;;;;;;;;;-4.40;99.90;;;;;;5039100;28;19936;-69
2022/12/14 01:47:23;;;;;;;;;;;-4.40;99.90;;;;;;5016195;28;211863;-69
2022/12/14 01:49:56;;;;;;;;;;;-4.50;99.90;;;;;;5023989;28;19920;-68
2022/12/14 01:52:31;;;;;;;;;;;-4.50;99.90;;;;;;5020955;28;179470;-68
2022/12/14 01:55:13;;;;;;;;;;;-4.50;99.90;;;;;;5069672;28;19928;-69
2022/12/14 01:57:42;;;;;;;;;;;-4.50;99.90;;;;;;5008523;28;193241;-69
2022/12/14 02:00:11;;;;;;;;;;;-4.50;99.90;;;;;;5039295;28;20292;-69
2022/12/14 02:02:39;;;;;;;;;;;-4.60;99.90;;;;;;5021995;27;208869;-69
2022/12/14 02:05:06;;;;;;;;;;;-4.60;99.90;;;;;;5038725;28;19933;-69
2022/12/14 02:07:32;;;;;;;;;;;-4.60;99.90;;;;;;5012984;28;206644;-69
2022/12/14 02:10:00;;;;;;;;;;;-4.60;99.90;;;;;;5052255;28;19928;-68
2022/12/14 02:12:28;;;;;;;;;;;-4.70;99.90;;;;;;5022712;28;211488;-69
2022/12/14 02:14:54;;;;;;;;;;;-4.60;99.90;;;;;;5070789;28;21325;-69
2022/12/14 02:17:20;;;;;;;;;;;-4.70;99.90;;;;;;5025524;28;213351;-69
2022/12/14 02:19:48;;;;;;;;;;;-4.70;99.90;;;;;;5074880;28;19928;-69
2022/12/14 02:22:33;;;;;;;;;;;-4.80;99.90;;;;;;5013298;28;185513;-68
2022/12/14 02:25:17;;;;;;;;;;;-4.80;99.90;;;;;;5059093;28;19929;-70
2022/12/14 02:27:46;;;;;;;;;;;-4.90;99.90;;;;;;5000831;28;208344;-69
2022/12/14 02:30:19;;;;;;;;;;;-4.90;99.90;;;;;;5044645;28;19931;-68
2022/12/14 02:32:48;;;;;;;;;;;-5.00;99.90;;;;;;5045399;27;206814;-69
2022/12/14 02:35:26;;;;;;;;;;;-5.00;99.90;;;;;;5039401;28;19920;-70
2022/12/14 02:38:04;;;;;;;;;;;-5.00;99.90;;;;;;5019646;28;152123;-69
2022/12/14 02:40:48;;;;;;;;;;;-5.00;99.90;;;;;;5048477;28;19928;-71
2022/12/14 02:43:14;;;;;;;;;;;-5.00;99.90;;;;;;5030067;27;198831;-69
2022/12/14 02:45:48;;;;;;;;;;;-5.00;99.90;;;;;;5043563;28;20355;-69
2022/12/14 02:48:30;;;;;;;;;;;-5.00;99.90;;;;;;4994980;28;156473;-69
2022/12/14 02:51:00;;;;;;;;;;;-5.10;99.90;;;;;;5056482;28;19921;-69
2022/12/14 02:53:42;;;;;;;;;;;-5.20;99.90;;;;;;5011287;28;208002;-69
2022/12/14 02:56:11;;;;;;;;;;;-5.20;99.90;;;;;;5040865;28;19928;-69
2022/12/14 02:58:42;;;;;;;;;;;-5.20;99.90;;;;;;4971846;28;179468;-69
2022/12/14 03:01:11;;;;;;;;;;;-5.30;99.90;;;;;;5089643;28;19935;-70
2022/12/14 03:03:38;;;;;;;;;;;-5.30;99.90;;;;;;4988938;28;212226;-70
2022/12/14 03:06:13;;;;;;;;;;;-5.30;99.90;;;;;;5071151;28;19932;-69
2022/12/14 03:08:41;;;;;;;;;;;-5.40;99.90;;;;;;5007834;28;107180;-69
2022/12/14 03:11:09;;;;;;;;;;;-5.40;99.90;;;;;;5060443;28;19924;-69
2022/12/14 03:13:55;;;;;;;;;;;-5.40;99.90;;;;;;4994280;28;133003;-68
2022/12/14 03:16:21;;;;;;;;;;;-5.40;99.90;;;;;;5066245;28;19925;-68
2022/12/14 03:18:59;;;;;;;;;;;-5.50;99.90;;;;;;4984830;28;171618;-69
2022/12/14 03:21:27;;;;;;;;;;;-5.50;99.90;;;;;;5063253;28;19924;-68
2022/12/14 03:23:55;;;;;;;;;;;-5.50;99.90;;;;;;4978665;28;207672;-68
2022/12/14 03:26:26;;;;;;;;;;;-5.60;99.90;;;;;;5064173;28;19928;-68
2022/12/14 03:29:07;;;;;;;;;;;-5.60;99.90;;;;;;4994963;28;193790;-68
2022/12/14 03:31:38;;;;;;;;;;;-5.70;99.90;;;;;;5096083;27;20412;-69
2022/12/14 03:34:05;;;;;;;;;;;-5.80;99.90;;;;;;4996166;28;130469;-69
2022/12/14 03:36:34;;;;;;;;;;;-5.80;99.90;;;;;;5062189;28;19931;-69
2022/12/14 03:39:02;;;;;;;;;;;-5.90;99.90;;;;;;5013257;28;208639;-69
2022/12/14 03:41:28;;;;;;;;;;;-5.90;99.90;;;;;;5062363;28;19924;-69
2022/12/14 03:44:12;;;;;;;;;;;-5.90;99.90;;;;;;5024215;28;207286;-70
2022/12/14 03:47:12;;;;;;;;;;;-5.90;99.90;;;;;;5092422;27;20309;-69
2022/12/14 03:49:40;;;;;;;;;;;-5.90;99.90;;;;;;4943477;28;206804;-69
2022/12/14 03:52:06;;;;;;;;;;;-5.90;99.90;;;;;;4991267;28;206344;-69
2022/12/14 03:54:55;;;;;;;;;;;-5.90;99.90;;;;;;5015636;28;20325;-70
2022/12/14 03:57:24;;;;;;;;;;;-5.90;99.90;;;;;;4971437;28;137916;-70
2022/12/14 03:59:56;;;;;;;;;;;-5.90;99.90;;;;;;5006568;28;19921;-70
2022/12/14 04:02:28;;;;;;;;;;;-6.00;99.90;;;;;;4954909;28;206322;-71
2022/12/14 04:05:02;;;;;;;;;;;-6.00;99.90;;;;;;5012039;28;20282;-70
2022/12/14 04:07:34;;;;;;;;;;;-6.00;99.90;;;;;;4979380;28;101165;-70
2022/12/14 04:10:00;;;;;;;;;;;-6.00;99.90;;;;;;5023767;28;19932;-70
2022/12/14 04:21:00;;;;;;;;;;;-6.20;99.90;;;;;;5015818;28;19932;-70
2022/12/14 04:26:22;;;;;;;;;;;-6.20;99.90;;;;;;5076600;28;19924;-70
2022/12/14 04:31:43;;;;;;;;;;;-6.30;99.90;;;;;;5057489;28;20316;-70
2022/12/14 04:34:10;;;;;;;;;;;-6.30;99.90;;;;;;5011524;28;208988;-70
2022/12/14 04:36:36;;;;;;;;;;;-6.30;99.90;;;;;;5094940;28;20397;-70
2022/12/14 04:39:07;;;;;;;;;;;-6.30;99.90;;;;;;5009691;28;212682;-70
2022/12/14 04:41:35;;;;;;;;;;;-6.40;99.90;;;;;;5063297;28;19999;-71
2022/12/14 04:44:05;;;;;;;;;;;-6.40;99.90;;;;;;4978556;28;207381;-70
2022/12/14 04:46:33;;;;;;;;;;;-6.50;99.90;;;;;;5065907;28;19932;-71
2022/12/14 04:49:08;;;;;;;;;;;-6.50;99.90;;;;;;4980731;28;175018;-70
2022/12/14 04:51:40;;;;;;;;;;;-6.50;99.90;;;;;;5065242;28;19936;-69
2022/12/14 04:54:13;;;;;;;;;;;-6.60;99.90;;;;;;4989363;28;273887;-70
2022/12/14 04:56:42;;;;;;;;;;;-6.60;99.90;;;;;;5063666;28;20266;-70
2022/12/14 04:59:08;;;;;;;;;;;-6.60;99.90;;;;;;5015150;28;138624;-70
2022/12/14 05:01:43;;;;;;;;;;;-6.60;99.90;;;;;;5101903;27;20507;-70
2022/12/14 05:04:09;;;;;;;;;;;-6.60;99.90;;;;;;4975482;28;205940;-70
2022/12/14 05:06:43;;;;;;;;;;;-6.60;99.90;;;;;;5067856;28;20294;-71
2022/12/14 05:09:32;;;;;;;;;;;-6.60;99.90;;;;;;5017319;28;212205;-70
2022/12/14 05:12:24;;;;;;;;;;;-6.60;99.90;;;;;;5020039;28;70474;-71
2022/12/14 05:15:08;;;;;;;;;;;-6.60;99.90;;;;;;5013842;28;19926;-70
2022/12/14 05:17:38;;;;;;;;;;;-6.60;99.90;;;;;;4980164;28;176762;-70
2022/12/14 05:20:04;;;;;;;;;;;-6.60;99.90;;;;;;5012762;28;19925;-71
2022/12/14 05:22:30;;;;;;;;;;;-6.60;99.90;;;;;;4969450;28;77010;-71
2022/12/14 05:24:56;;;;;;;;;;;-6.70;99.90;;;;;;5020295;28;19921;-71
2022/12/14 05:27:22;;;;;;;;;;;-6.70;99.90;;;;;;4953754;28;189600;-70
2022/12/14 05:29:48;;;;;;;;;;;-6.70;99.90;;;;;;5032464;28;19921;-69
2022/12/14 05:32:14;;;;;;;;;;;-6.70;99.90;;;;;;4962751;28;160205;-69
2022/12/14 05:34:40;;;;;;;;;;;-6.80;99.90;;;;;;5019551;28;19968;-70
2022/12/14 05:37:06;;;;;;;;;;;-6.80;99.90;;;;;;4941868;28;158750;-71
2022/12/14 05:39:32;;;;;;;;;;;-6.80;99.90;;;;;;5025322;28;19931;-72
2022/12/14 05:41:58;;;;;;;;;;;-6.80;99.90;;;;;;4948344;28;175394;-71
2022/12/14 05:44:24;;;;;;;;;;;-6.80;99.90;;;;;;5006595;28;19929;-70
2022/12/14 05:46:51;;;;;;;;;;;-6.80;99.90;;;;;;4967571;28;62547;-69
2022/12/14 05:49:17;;;;;;;;;;;-6.80;99.90;;;;;;5015869;28;20414;-71
2022/12/14 05:51:43;;;;;;;;;;;-6.90;99.90;;;;;;5027503;28;208314;-72
2022/12/14 05:54:08;;;;;;;;;;;-6.90;99.90;;;;;;4999952;28;22877;-70
2022/12/14 05:56:34;;;;;;;;;;;-6.90;99.90;;;;;;5064274;28;19943;-70
2022/12/14 05:59:01;;;;;;;;;;;-7.00;99.90;;;;;;5041367;28;208095;-71
2022/12/14 06:01:27;;;;;;;;;;;-7.00;99.90;;;;;;5049230;28;20655;-70
2022/12/14 06:03:53;;;;;;;;;;;-7.00;99.90;;;;;;4982197;28;175106;-70
2022/12/14 06:06:20;;;;;;;;;;;-7.00;99.90;;;;;;5067102;28;19983;-70
2022/12/14 06:08:46;;;;;;;;;;;-7.00;99.90;;;;;;5032389;28;137464;-71
2022/12/14 06:11:17;;;;;;;;;;;-7.00;99.90;;;;;;5064131;28;20309;-71
2022/12/14 06:13:43;;;;;;;;;;;-7.10;99.90;;;;;;4990069;28;208120;-70
2022/12/14 06:16:16;;;;;;;;;;;-7.10;99.90;;;;;;5064514;28;19935;-71
2022/12/14 06:18:43;;;;;;;;;;;-7.10;99.90;;;;;;5021076;28;221034;-70
2022/12/14 06:21:09;;;;;;;;;;;-7.10;99.90;;;;;;5062204;28;19931;-70
2022/12/14 06:23:35;;;;;;;;;;;-7.10;99.90;;;;;;5011851;28;207451;-70
2022/12/14 06:26:02;;;;;;;;;;;-7.10;99.90;;;;;;5064073;28;20040;-70
2022/12/14 06:28:27;;;;;;;;;;;-7.10;99.90;;;;;;5007884;28;155492;-70
2022/12/14 06:30:53;;;;;;;;;;;-7.10;99.90;;;;;;5065628;28;20386;-70
2022/12/14 06:33:19;;;;;;;;;;;-7.10;99.90;;;;;;4997389;28;84359;-70
2022/12/14 06:35:45;;;;;;;;;;;-7.20;99.90;;;;;;5056027;28;19931;-71
2022/12/14 06:38:12;;;;;;;;;;;-7.20;99.90;;;;;;4995531;28;206322;-71
2022/12/14 06:40:38;;;;;;;;;;;-7.20;99.90;;;;;;5049250;28;20397;-71
2022/12/14 06:43:04;;;;;;;;;;;-7.20;99.90;;;;;;5000609;28;164139;-70
2022/12/14 06:45:30;;;;;;;;;;;-7.30;99.90;;;;;;5053218;28;19921;-71
2022/12/14 06:47:57;;;;;;;;;;;-7.30;99.90;;;;;;5032845;28;206492;-71
2022/12/14 06:50:23;;;;;;;;;;;-7.30;99.90;;;;;;5064309;28;20559;-71
2022/12/14 06:52:54;;;;;;;;;;;-7.30;99.90;;;;;;5017185;28;116319;-71
2022/12/14 06:55:21;;;;;;;;;;;-7.20;99.90;;;;;;5063153;28;19932;-71
2022/12/14 06:57:50;;;;;;;;;;;-7.30;99.90;;;;;;5004384;28;210127;-71
2022/12/14 07:00:17;;;;;;;;;;;-7.30;99.90;;;;;;5048368;28;19932;-71
2022/12/14 07:02:43;;;;;;;;;;;-7.30;99.90;;;;;;5000174;28;198692;-70
2022/12/14 07:05:09;;;;;;;;;;;-7.30;99.90;;;;;;5061595;28;19935;-71
2022/12/14 07:07:35;;;;;;;;;;;-7.30;99.90;;;;;;5005395;28;208154;-74
2022/12/14 07:10:02;;;;;;;;;;;-7.30;99.90;;;;;;5049844;28;19924;-70
2022/12/14 07:12:28;;;;;;;;;;;-7.30;99.90;;;;;;5008218;28;172016;-71
2022/12/14 07:14:54;;;;;;;;;;;-7.40;99.90;;;;;;5026448;28;19920;-69
2022/12/14 07:17:20;;;;;;;;;;;-7.40;99.90;;;;;;5017183;28;129080;-70
2022/12/14 07:19:46;;;;;;;;;;;-7.40;99.90;;;;;;5017410;28;19932;-70
2022/12/14 07:22:12;;;;;;;;;;;-7.40;99.90;;;;;;5020224;28;168223;-70
2022/12/14 07:24:39;;;;;;;;;;;-7.40;99.90;;;;;;5037501;28;19924;-70
2022/12/14 07:27:05;;;;;;;;;;;-7.40;99.90;;;;;;5016764;28;218988;-70
2022/12/14 07:29:31;;;;;;;;;;;-7.40;99.90;;;;;;5064497;28;19921;-69
2022/12/14 07:31:57;;;;;;;;;;;-7.40;99.90;;;;;;5014603;28;215202;-70
2022/12/14 07:34:24;;;;;;;;;;;-7.50;99.90;;;;;;5035300;28;19924;-70
2022/12/14 07:36:51;;;;;;;;;;;-7.40;99.90;;;;;;5062155;27;212455;-70
2022/12/14 07:39:18;;;;;;;;;;;-7.50;99.90;;;;;;5028058;28;19927;-70
2022/12/14 07:41:45;;;;;;;;;;;-7.40;99.90;;;;;;5033568;28;206698;-71
2022/12/14 07:44:11;;;;;;;;;;;-7.50;99.90;;;;;;5038433;28;176692;-70
2022/12/14 07:46:38;;;;;;;;;;;-7.50;99.90;;;;;;5066994;28;19925;-70
2022/12/14 07:49:04;;;;;;;;;;;-7.40;99.90;;;;;;5022100;28;211514;-70
2022/12/14 07:51:32;;;;;;;;;;;-7.40;99.90;;;;;;5068390;28;19921;-70
2022/12/14 07:53:58;;;;;;;;;;;-7.40;99.90;;;;;;4999102;28;200955;-70
2022/12/14 07:56:26;;;;;;;;;;;-7.40;99.90;;;;;;5064542;28;19951;-70
2022/12/14 07:58:53;;;;;;;;;;;-7.40;99.90;;;;;;4985145;28;192818;-70
2022/12/14 08:01:21;;;;;;;;;;;-7.40;99.90;;;;;;5062382;28;19929;-70
2022/12/14 08:04:10;;;;;;;;;;;-7.40;99.90;;;;;;4982191;28;202077;-68
2022/12/14 08:06:36;;;;;;;;;;;-7.40;99.90;;;;;;5040811;28;19940;-68
2022/12/14 08:09:03;;;;;;;;;;;-7.40;99.90;;;;;;4956780;28;175854;-69
2022/12/14 08:11:29;;;;;;;;;;;-7.40;99.90;;;;;;5009690;28;19939;-70
2022/12/14 08:13:56;;;;;;;;;;;-7.40;99.90;;;;;;4994147;28;192230;-70
2022/12/14 08:16:22;;;;;;;;;;;-7.40;99.90;;;;;;5012593;28;19925;-70
2022/12/14 08:18:49;;;;;;;;;;;-7.40;99.90;;;;;;4974550;28;150854;-70
2022/12/14 08:21:19;;;;;;;;;;;-7.40;99.90;;;;;;5010018;28;19921;-70
2022/12/14 08:23:45;;;;;;;;;;;-7.40;99.90;;;;;;4977447;28;152827;-70
2022/12/14 08:26:11;;;;;;;;;;;-7.40;99.90;;;;;;5010398;28;20472;-70
2022/12/14 08:28:37;;;;;;;;;;;-7.30;99.90;;;;;;4971470;28;208190;-70
2022/12/14 08:31:04;;;;;;;;;;;-7.30;99.90;;;;;;5025676;28;20020;-69
2022/12/14 08:33:31;;;;;;;;;;;-7.30;99.90;;;;;;4975950;28;201187;-70
2022/12/14 08:36:03;;;;;;;;;;;-7.30;99.90;;;;;;5005869;28;19921;-69
2022/12/14 08:38:29;;;;;;;;;;;-7.20;99.90;;;;;;4959913;28;208251;-70
2022/12/14 08:40:55;;;;;;;;;;;-7.20;99.90;;;;;;5022206;28;19921;-70
2022/12/14 08:43:21;;;;;;;;;;;-7.20;99.90;;;;;;4967658;28;207030;-71
2022/12/14 08:45:47;;;;;;;;;;;-7.20;99.90;;;;;;5085856;28;19935;-71
2022/12/14 08:48:13;;;;;;;;;;;-7.10;99.90;;;;;;5018884;28;159923;-70
2022/12/14 08:50:39;;;;;;;;;;;-7.10;99.90;;;;;;5060996;28;20020;-70
2022/12/14 08:53:05;;;;;;;;;;;-7.00;99.90;;;;;;4995398;28;138459;-70
2022/12/14 08:55:30;;;;;;;;;;;-7.00;99.90;;;;;;5048753;28;19934;-70
2022/12/14 08:57:57;;;;;;;;;;;-6.90;99.90;;;;;;5000037;28;205098;-70
2022/12/14 09:00:23;;;;;;;;;;;-6.90;99.90;;;;;;5043889;28;19927;-71
2022/12/14 09:02:49;;;;;;;;;;;-6.80;99.90;;;;;;4991448;28;211190;-70
2022/12/14 09:05:15;;;;;;;;;;;-6.80;99.90;;;;;;5018551;28;19921;-71
2022/12/14 09:07:41;;;;;;;;;;;-6.80;99.90;;;;;;5000329;28;185872;-71
2022/12/14 09:10:07;;;;;;;;;;;-6.70;99.90;;;;;;5045008;28;19921;-71
2022/12/14 09:12:35;;;;;;;;;;;-6.70;99.90;;;;;;5005808;28;161233;-71
2022/12/14 09:15:01;;;;;;;;;;;-6.70;99.90;;;;;;5042442;28;19931;-70
2022/12/14 09:17:26;;;;;;;;;;;-6.70;99.90;;;;;;5017420;28;180342;-70
2022/12/14 09:19:52;;;;;;;;;;;-6.70;99.90;;;;;;5037836;28;19920;-71
2022/12/14 09:22:18;;;;;;;;;;;-6.60;99.90;;;;;;4991074;28;205288;-70
2022/12/14 09:24:44;;;;;;;;;;;-6.60;99.90;;;;;;5030498;28;20405;-71
2022/12/14 09:27:10;;;;;;;;;;;-6.50;99.90;;;;;;5023211;28;115151;-70
2022/12/14 09:29:36;;;;;;;;;;;-6.50;99.90;;;;;;5043793;28;20391;-71
2022/12/14 09:32:02;;;;;;;;;;;-6.40;99.90;;;;;;5017421;28;207570;-71
2022/12/14 09:34:28;;;;;;;;;;;-6.40;99.90;;;;;;5038923;28;19920;-71
2022/12/14 09:36:54;;;;;;;;;;;-6.40;99.90;;;;;;5011579;28;204087;-71
2022/12/14 09:39:20;;;;;;;;;;;-6.30;99.90;;;;;;5026360;28;19927;-71
2022/12/14 09:41:46;;;;;;;;;;;-6.30;99.90;;;;;;5080939;28;212078;-71
2022/12/14 09:44:22;;;;;;;;;;;-6.20;99.90;;;;;;5014902;28;141016;-71
2022/12/14 09:46:48;;;;;;;;;;;-6.10;99.90;;;;;;5041394;28;208479;-71
2022/12/14 09:49:33;;;;;;;;;;;-6.00;99.90;;;;;;5009189;28;19920;-71
2022/12/14 09:52:00;;;;;;;;;;;-5.90;99.90;;;;;;5012957;28;215527;-71
2022/12/14 09:54:28;;;;;;;;;;;-5.80;99.90;;;;;;5030705;28;19920;-71
2022/12/14 09:56:56;;;;;;;;;;;-5.70;99.90;;;;;;5048330;28;207551;-71
2022/12/14 09:59:25;;;;;;;;;;;-5.60;99.90;;;;;;5034910;28;19920;-71
2022/12/14 10:02:00;;;;;;;;;;;-5.60;99.90;;;;;;5030629;28;211524;-71
2022/12/14 10:04:59;;;;;;;;;;;-5.60;99.90;;;;;;4992538;28;19921;-71
2022/12/14 10:07:30;;;;;;;;;;;-5.50;99.90;;;;;;4991468;28;180782;-71
2022/12/14 10:10:15;;;;;;;;;;;-5.40;99.90;;;;;;5018732;28;19956;-71
2022/12/14 10:12:50;;;;;;;;;;;-5.30;99.90;;;;;;4965678;28;122832;-72
2022/12/14 10:15:28;;;;;;;;;;;-5.30;99.90;;;;;;5031259;28;19921;-70
2022/12/14 10:18:17;;;;;;;;;;;-5.20;99.90;;;;;;4968949;28;209974;-72
2022/12/14 10:20:52;;;;;;;;;;;-5.10;99.90;;;;;;4969700;28;19929;-71
2022/12/14 10:23:20;;;;;;;;;;;-4.90;99.90;;;;;;4945371;28;211422;-71
2022/12/14 10:26:02;;;;;;;;;;;-4.80;99.90;;;;;;4992981;28;20346;-70
2022/12/14 10:28:34;;;;;;;;;;;-4.70;99.90;;;;;;4953252;28;116071;-70
2022/12/14 10:31:00;;;;;;;;;;;-4.60;99.90;;;;;;4977644;28;19930;-71
2022/12/14 10:33:28;;;;;;;;;;;-4.60;99.90;;;;;;4934255;28;209247;-72
2022/12/14 10:35:59;;;;;;;;;;;-4.60;99.90;;;;;;4973106;28;19929;-72
2022/12/14 10:38:25;;;;;;;;;;;-4.50;99.90;;;;;;4924357;28;214224;-71
2022/12/14 10:40:53;;;;;;;;;;;-4.40;99.90;;;;;;4972768;28;19926;-72
2022/12/14 10:43:38;;;;;;;;;;;-4.30;99.90;;;;;;4929094;28;202274;-72
2022/12/14 10:46:18;;;;;;;;;;;-4.20;99.90;;;;;;5006048;28;19925;-71
2022/12/14 10:48:52;;;;;;;;;;;-4.10;99.90;;;;;;4956018;28;206625;-71
2022/12/14 10:51:21;;;;;;;;;;;-4.00;99.90;;;;;;5021981;28;20430;-71
2022/12/14 10:53:50;;;;;;;;;;;-3.90;99.90;;;;;;4943904;28;171212;-72
2022/12/14 10:56:20;;;;;;;;;;;-3.90;99.90;;;;;;4989683;28;20017;-72
2022/12/14 10:59:06;;;;;;;;;;;-3.80;99.90;;;;;;4974638;28;211904;-72
2022/12/14 11:01:32;;;;;;;;;;;-3.70;99.90;;;;;;5069253;28;19920;-72
2022/12/14 11:03:58;;;;;;;;;;;-3.60;99.90;;;;;;4964668;28;161501;-73
2022/12/14 11:06:24;;;;;;;;;;;-3.60;99.90;;;;;;5066083;28;19921;-73
2022/12/14 11:08:50;;;;;;;;;;;-3.50;99.90;;;;;;4966548;28;206469;-73
2022/12/14 11:11:23;;;;;;;;;;;-3.40;99.90;;;;;;5060729;28;19920;-74
2022/12/14 11:13:53;;;;;;;;;;;-3.40;99.90;;;;;;4988206;28;166216;-74
2022/12/14 11:16:22;;;;;;;;;;;-3.30;99.90;;;;;;5067265;28;20189;-74
2022/12/14 11:18:55;;;;;;;;;;;-3.20;99.90;;;;;;4999667;28;160265;-75
2022/12/14 11:21:27;;;;;;;;;;;-3.20;99.90;;;;;;5062514;28;19921;-74
2022/12/14 11:23:53;;;;;;;;;;;-3.20;99.90;;;;;;4983826;28;177186;-74
2022/12/14 11:26:26;;;;;;;;;;;-3.10;99.90;;;;;;5064623;28;20302;-74
2022/12/14 11:28:52;;;;;;;;;;;-3.10;99.90;;;;;;5022496;28;152609;-74
2022/12/14 11:31:31;;;;;;;;;;;-3.10;99.90;;;;;;5066428;28;20530;-75
2022/12/14 11:33:57;;;;;;;;;;;-3.10;99.90;;;;;;4988273;28;208915;-74
2022/12/14 11:36:29;;;;;;;;;;;-3.00;99.90;;;;;;5093860;27;19924;-74
2022/12/14 11:38:58;;;;;;;;;;;-3.00;99.90;;;;;;4992551;28;210976;-76
2022/12/14 11:41:28;;;;;;;;;;;-3.00;99.90;;;;;;5064405;28;19924;-75
2022/12/14 11:44:02;;;;;;;;;;;-3.00;99.90;;;;;;4970042;28;207234;-76
2022/12/14 11:46:42;;;;;;;;;;;-3.00;99.90;;;;;;5077616;28;19924;-77
2022/12/14 11:49:37;;;;;;;;;;;-2.90;99.90;;;;;;4990965;28;205220;-76
2022/12/14 11:52:03;;;;;;;;;;;-2.80;99.90;;;;;;5003968;28;213822;-76
2022/12/14 11:54:37;;;;;;;;;;;-2.80;99.90;;;;;;5014628;28;20360;-75
2022/12/14 11:57:05;;;;;;;;;;;-2.70;99.90;;;;;;5020187;28;208976;-76
2022/12/14 11:59:41;;;;;;;;;;;-2.70;99.90;;;;;;5031960;28;19924;-76
2022/12/14 12:02:15;;;;;;;;;;;-2.60;99.90;;;;;;5002488;28;208374;-76
2022/12/14 12:04:44;;;;;;;;;;;-2.50;99.90;;;;;;5030786;28;19931;-75
2022/12/14 12:07:31;;;;;;;;;;;-2.40;99.90;;;;;;4996168;28;188220;-76
2022/12/14 12:10:05;;;;;;;;;;;-2.40;99.90;;;;;;5044806;28;19928;-75
2022/12/14 12:12:31;;;;;;;;;;;-2.10;99.90;;;;;;5005803;28;148118;-78
2022/12/14 12:14:57;;;;;;;;;;;0.20;99.90;;;;;;5035564;28;20290;-77
2022/12/14 12:17:37;;;;;;;;;;;2.30;99.90;;;;;;5006282;28;207268;-77
2022/12/14 12:20:11;;;;;;;;;;;4.20;99.90;;;;;;5050576;28;19924;-77
2022/12/14 12:22:39;;;;;;;;;;;5.70;99.90;;;;;;5022889;28;217916;-77
2022/12/14 12:25:06;;;;;;;;;;;7.10;99.90;;;;;;5055093;28;19921;-76
2022/12/14 12:27:32;;;;;;;;;;;8.20;99.90;;;;;;5014103;28;136019;-76
2022/12/14 12:30:17;;;;;;;;;;;8.90;99.90;;;;;;5048247;28;19924;-78
2022/12/14 12:32:46;;;;;;;;;;;9.50;99.90;;;;;;5023732;28;158195;-76
2022/12/14 12:35:12;;;;;;;;;;;9.70;97.30;;;;;;5073234;28;19935;-77
2022/12/14 12:37:41;;;;;;;;;;;10.10;98.70;;;;;;5038676;28;179626;-76
2022/12/14 12:40:28;;;;;;;;;;;10.50;97.90;;;;;;5076888;28;19928;-77
2022/12/14 12:43:05;;;;;;;;;;;11.10;99.90;;;;;;4999836;28;207994;-72
2022/12/14 12:45:43;;;;;;;;;;;11.90;98.30;;;;;;5046149;28;19928;-72
2022/12/14 12:48:14;;;;;;;;;;;12.50;97.60;;;;;;5027503;28;160072;-71
2022/12/14 12:51:19;;;;;;;;;;;13.00;98.40;;;;;;5066964;28;19929;-72
2022/12/14 12:53:46;;;;;;;;;;;13.30;97.10;;;;;;4955979;28;207681;-71
2022/12/14 12:56:15;;;;;;;;;;;13.70;96.20;;;;;;5045961;28;19924;-71
2022/12/14 12:58:42;;;;;;;;;;;13.90;94.10;;;;;;4991425;28;165283;-72
2022/12/14 13:01:17;;;;;;;;;;;14.00;94.60;;;;;;5046687;28;19920;-71
2022/12/14 13:03:45;;;;;;;;;;;14.30;95.40;;;;;;4969545;28;209010;-74
2022/12/14 13:06:30;;;;;;;;;;;14.90;93.20;;;;;;5044190;28;19928;-72
2022/12/14 13:08:57;;;;;;;;;;;15.10;92.40;;;;;;4998970;28;143412;-72
2022/12/14 13:11:28;;;;;;;;;;;15.20;93.80;;;;;;5049694;28;19931;-71
2022/12/14 13:13:57;;;;;;;;;;;15.40;93.90;;;;;;4991334;28;202705;-71
2022/12/14 13:16:28;;;;;;;;;;;15.60;89.80;;;;;;5044387;28;20433;-72
2022/12/14 13:19:00;;;;;;;;;;;15.50;90.40;;;;;;5013549;28;182857;-72
2022/12/14 13:21:31;;;;;;;;;;;15.60;91.40;;;;;;5049462;28;19924;-72
2022/12/14 13:23:57;;;;;;;;;;;15.70;91.10;;;;;;4983026;28;118979;-72
2022/12/14 13:26:46;;;;;;;;;;;16.00;91.10;;;;;;5064751;28;20392;-72
2022/12/14 13:29:12;;;;;;;;;;;16.20;91.30;;;;;;5010159;28;208806;-72
2022/12/14 13:31:45;;;;;;;;;;;16.40;87.20;;;;;;5075880;28;20019;-72
2022/12/14 13:34:18;;;;;;;;;;;16.20;87.00;;;;;;4999805;28;209354;-72
2022/12/14 13:36:44;;;;;;;;;;;16.10;86.50;;;;;;5082053;28;207588;-72
2022/12/14 13:39:13;;;;;;;;;;;15.90;86.30;;;;;;5027640;28;44888;-72
2022/12/14 13:41:39;;;;;;;;;;;15.70;80.40;;;;;;5061339;28;19932;-72
2022/12/14 13:44:08;;;;;;;;;;;15.60;85.50;;;;;;5018925;28;206542;-72
2022/12/14 13:46:34;;;;;;;;;;;15.80;87.00;;;;;;5067624;28;20408;-72
2022/12/14 13:49:05;;;;;;;;;;;15.70;82.30;;;;;;5036408;28;89436;-73
2022/12/14 13:51:34;;;;;;;;;;;15.60;83.70;;;;;;5066615;28;19920;-72
2022/12/14 13:54:01;;;;;;;;;;;15.70;81.60;;;;;;5019664;28;179178;-72
2022/12/14 13:56:32;;;;;;;;;;;15.70;83.20;;;;;;5065447;28;19924;-72
2022/12/14 13:59:00;;;;;;;;;;;15.60;77.20;;;;;;4985108;28;225779;-73
2022/12/14 14:01:44;;;;;;;;;;;14.80;80.20;;;;;;5054245;28;19925;-73
2022/12/14 14:04:11;;;;;;;;;;;13.30;79.50;;;;;;4989714;28;149546;-72
2022/12/14 14:06:39;;;;;;;;;;;11.20;79.30;;;;;;5066789;28;19920;-72
2022/12/14 14:09:24;;;;;;;;;;;9.60;80.30;;;;;;4993994;28;208996;-72
2022/12/14 14:11:55;;;;;;;;;;;8.10;80.70;;;;;;5029599;28;207601;-72
2022/12/14 14:14:24;;;;;;;;;;;6.80;83.60;;;;;;5054170;28;19928;-72
2022/12/14 14:16:54;;;;;;;;;;;5.90;86.20;;;;;;5025019;28;206718;-71
2022/12/14 14:19:22;;;;;;;;;;;6.10;88.70;;;;;;5045093;28;19924;-72
2022/12/14 14:22:02;;;;;;;;;;;7.10;88.20;;;;;;5042429;28;213478;-72
2022/12/14 14:24:28;;;;;;;;;;;7.20;89.00;;;;;;4994169;28;19931;-72
2022/12/14 14:27:00;;;;;;;;;;;6.50;89.30;;;;;;5050366;28;207993;-71
2022/12/14 14:29:30;;;;;;;;;;;5.60;89.80;;;;;;5033966;28;19927;-72
2022/12/14 14:31:56;;;;;;;;;;;4.80;90.40;;;;;;5018550;28;207882;-72
2022/12/14 14:34:38;;;;;;;;;;;4.20;91.40;;;;;;5040343;28;19920;-71
2022/12/14 14:37:18;;;;;;;;;;;3.60;92.00;;;;;;5043372;27;212277;-71
2022/12/14 14:39:54;;;;;;;;;;;3.10;93.20;;;;;;5040336;28;19929;-71